createdAt,value
2018-12-21T00:02:32.943Z,8.53
2018-12-21T00:05:05.127Z,13.10
2018-12-21T00:07:37.178Z,7.40
2018-12-21T00:10:09.088Z,10.30
2018-12-21T00:12:43.324Z,10.27
2018-12-21T00:15:16.344Z,14.10
2018-12-21T00:17:50.604Z,11.07
2018-12-21T00:20:22.508Z,12.17
2018-12-21T00:22:53.934Z,7.90
2018-12-21T00:25:28.134Z,7.27
2018-12-21T00:28:02.490Z,8.80
2018-12-21T00:30:33.882Z,10.17
2018-12-21T00:33:11.152Z,8.37
2018-12-21T00:35:49.294Z,12.37
2018-12-21T00:38:28.971Z,11.70
2018-12-21T00:41:06.081Z,7.00
2018-12-21T00:43:51.230Z,7.63
2018-12-21T00:46:27.796Z,6.97
2018-12-21T00:48:59.525Z,9.27
2018-12-21T00:51:33.599Z,8.33
2018-12-21T00:54:06.843Z,8.33
2018-12-21T00:56:38.502Z,7.80
2018-12-21T00:59:13.551Z,10.03
2018-12-21T01:01:45.491Z,7.10
2018-12-21T01:04:17.839Z,6.90
2018-12-21T01:06:49.580Z,9.37
2018-12-21T01:09:23.363Z,10.00
2018-12-21T01:11:55.326Z,7.67
2018-12-21T01:14:29.335Z,7.23
2018-12-21T01:17:01.177Z,11.07
2018-12-21T01:19:32.517Z,4.60
2018-12-21T01:22:06.561Z,7.10
2018-12-21T01:24:38.662Z,8.67
2018-12-21T01:27:14.525Z,7.67
2018-12-21T01:29:46.759Z,5.73
2018-12-21T01:32:18.232Z,10.67
2018-12-21T01:34:50.644Z,7.53
2018-12-21T01:37:22.777Z,6.20
2018-12-21T01:39:55.269Z,5.80
2018-12-21T01:42:28.795Z,7.13
2018-12-21T01:45:03.318Z,9.20
2018-12-21T01:47:34.368Z,7.97
2018-12-21T01:50:06.044Z,6.83
2018-12-21T01:52:37.447Z,10.07
2018-12-21T01:55:11.726Z,5.63
2018-12-21T01:57:42.976Z,5.93
2018-12-21T02:00:15.702Z,4.80
2018-12-21T02:02:47.216Z,5.83
2018-12-21T02:05:19.802Z,4.53
2018-12-21T02:07:49.292Z,4.07
2018-12-21T02:10:21.161Z,3.80
2018-12-21T02:12:55.051Z,2.77
2018-12-21T02:15:27.309Z,4.40
2018-12-21T02:18:01.228Z,4.90
2018-12-21T02:20:37.065Z,5.30
2018-12-21T02:23:08.458Z,5.00
2018-12-21T02:33:06.626Z,2.80
2018-12-21T02:35:40.531Z,3.60
2018-12-21T02:38:15.194Z,5.93
2018-12-21T02:40:47.300Z,2.37
2018-12-21T02:43:19.234Z,5.03
2018-12-21T02:45:50.524Z,5.50
2018-12-21T02:48:24.982Z,2.90
2018-12-21T02:50:59.102Z,2.70
2018-12-21T02:53:33.609Z,3.87
2018-12-21T02:56:05.102Z,4.73
2018-12-21T02:58:36.446Z,6.03
2018-12-21T03:01:07.346Z,4.80
2018-12-21T03:03:38.665Z,3.27
2018-12-21T03:06:12.904Z,3.20
2018-12-21T03:08:44.863Z,4.97
2018-12-21T03:11:16.546Z,2.97
2018-12-21T03:13:51.219Z,3.77
2018-12-21T03:16:22.206Z,3.07
2018-12-21T03:18:56.952Z,3.97
2018-12-21T03:21:27.865Z,3.50
2018-12-21T03:24:02.128Z,3.37
2018-12-21T03:26:33.320Z,2.30
2018-12-21T03:29:04.768Z,4.80
2018-12-21T03:31:36.503Z,2.17
2018-12-21T03:34:11.814Z,2.47
2018-12-21T03:36:43.071Z,1.77
2018-12-21T03:39:14.395Z,4.17
2018-12-21T03:41:45.961Z,1.93
2018-12-21T03:44:17.239Z,3.27
2018-12-21T03:46:51.280Z,1.60
2018-12-21T03:49:23.439Z,1.37
2018-12-21T03:51:57.207Z,3.10
2018-12-21T03:54:29.546Z,1.87
2018-12-21T03:57:01.156Z,1.57
2018-12-21T03:59:43.676Z,2.47
2018-12-21T04:02:15.101Z,1.97
2018-12-21T04:04:46.504Z,2.17
2018-12-21T04:07:20.676Z,1.67
2018-12-21T04:09:55.032Z,1.80
2018-12-21T04:12:26.736Z,2.60
2018-12-21T04:15:00.534Z,1.83
2018-12-21T04:17:31.929Z,2.00
2018-12-21T04:20:05.969Z,2.37
2018-12-21T04:22:39.623Z,0.60
2018-12-21T04:25:11.405Z,0.90
2018-12-21T04:27:42.826Z,1.17
2018-12-21T04:30:14.636Z,0.60
2018-12-21T04:32:45.883Z,1.53
2018-12-21T04:35:19.419Z,0.63
2018-12-21T04:37:50.687Z,0.40
2018-12-21T04:40:24.598Z,2.60
2018-12-21T04:42:58.150Z,2.00
2018-12-21T04:45:30.326Z,1.07
2018-12-21T04:48:01.733Z,1.20
2018-12-21T04:50:32.924Z,0.80
2018-12-21T04:53:04.635Z,1.00
2018-12-21T04:55:36.672Z,0.60
2018-12-21T04:58:10.293Z,0.60
2018-12-21T05:00:42.751Z,0.70
2018-12-21T05:03:14.400Z,0.50
2018-12-21T05:05:45.822Z,0.60
2018-12-21T05:08:17.574Z,0.63
2018-12-21T05:10:51.917Z,0.60
2018-12-21T05:13:22.939Z,0.93
2018-12-21T05:15:55.909Z,0.60
2018-12-21T05:18:29.815Z,0.50
2018-12-21T05:21:04.317Z,0.77
2018-12-21T05:23:37.928Z,1.40
2018-12-21T05:26:09.868Z,1.07
2018-12-21T05:28:40.851Z,1.13
2018-12-21T05:31:15.805Z,0.67
2018-12-21T05:33:49.452Z,0.97
2018-12-21T05:36:23.895Z,0.93
2018-12-21T05:38:55.398Z,0.73
2018-12-21T05:41:27.042Z,0.50
2018-12-21T05:43:58.836Z,1.33
2018-12-21T05:46:30.054Z,0.70
2018-12-21T05:49:01.918Z,1.00
2018-12-21T05:51:33.476Z,1.20
2018-12-21T05:54:04.493Z,0.70
2018-12-21T05:56:36.111Z,1.37
2018-12-21T05:59:08.682Z,2.07
2018-12-21T06:01:40.839Z,0.73
2018-12-21T06:04:11.978Z,0.97
2018-12-21T06:06:43.671Z,0.87
2018-12-21T06:09:17.703Z,0.80
2018-12-21T06:11:50.454Z,0.70
2018-12-21T06:14:21.471Z,1.50
2018-12-21T06:16:53.787Z,2.43
2018-12-21T06:19:25.887Z,1.43
2018-12-21T06:21:58.345Z,1.73
2018-12-21T06:24:30.007Z,1.40
2018-12-21T06:27:03.255Z,0.77
2018-12-21T06:29:35.415Z,1.67
2018-12-21T06:32:10.841Z,1.27
2018-12-21T06:34:41.925Z,0.73
2018-12-21T06:37:16.343Z,1.47
2018-12-21T06:39:47.336Z,0.60
2018-12-21T06:42:22.739Z,1.50
2018-12-21T06:44:58.847Z,2.00
2018-12-21T06:47:33.911Z,0.50
2018-12-21T06:50:14.155Z,1.30
2018-12-21T06:52:46.278Z,1.00
2018-12-21T06:55:17.440Z,0.60
2018-12-21T06:57:48.977Z,0.60
2018-12-21T07:02:49.682Z,0.77
2018-12-21T07:05:22.953Z,0.87
2018-12-21T07:07:54.523Z,0.80
2018-12-21T07:10:28.085Z,0.30
2018-12-21T07:13:02.373Z,0.37
2018-12-21T07:15:36.935Z,0.30
2018-12-21T07:18:09.271Z,0.40
2018-12-21T07:20:43.398Z,1.27
2018-12-21T07:23:26.887Z,0.53
2018-12-21T07:25:56.333Z,0.63
2018-12-21T07:28:28.271Z,0.20
2018-12-21T07:30:59.941Z,0.43
2018-12-21T07:33:34.392Z,0.40
2018-12-21T07:36:08.473Z,0.43
2018-12-21T07:38:40.651Z,0.50
2018-12-21T07:41:11.788Z,1.53
2018-12-21T07:43:48.807Z,0.30
2018-12-21T07:46:24.066Z,0.77
2018-12-21T07:48:57.014Z,1.00
2018-12-21T07:51:28.351Z,0.70
2018-12-21T07:54:02.315Z,0.50
2018-12-21T07:56:33.368Z,0.50
2018-12-21T07:59:06.358Z,0.70
2018-12-21T08:01:38.287Z,1.13
2018-12-21T08:04:11.431Z,1.33
2018-12-21T08:06:42.369Z,0.70
2018-12-21T08:09:16.404Z,0.50
2018-12-21T08:11:50.094Z,0.67
2018-12-21T08:14:24.770Z,0.57
2018-12-21T08:16:55.794Z,0.53
2018-12-21T08:19:32.126Z,0.60
2018-12-21T08:22:03.674Z,0.83
2018-12-21T08:24:39.993Z,0.57
2018-12-21T08:27:11.229Z,0.60
2018-12-21T08:29:45.730Z,0.63
2018-12-21T08:32:19.587Z,0.67
2018-12-21T08:34:54.416Z,0.50
2018-12-21T08:37:26.142Z,0.93
2018-12-21T08:40:00.089Z,0.87
2018-12-21T08:42:31.298Z,1.17
2018-12-21T08:45:08.166Z,0.50
2018-12-21T08:47:41.564Z,0.60
2018-12-21T08:50:16.042Z,0.60
2018-12-21T08:52:50.026Z,0.90
2018-12-21T08:55:25.740Z,1.23
2018-12-21T08:57:59.230Z,0.73
2018-12-21T09:00:31.280Z,1.87
2018-12-21T09:03:02.854Z,1.00
2018-12-21T09:05:35.450Z,0.80
2018-12-21T09:08:06.508Z,1.20
2018-12-21T09:10:41.921Z,1.07
2018-12-21T09:13:15.920Z,1.07
2018-12-21T09:15:56.793Z,0.60
2018-12-21T09:18:28.236Z,0.50
2018-12-21T09:20:59.563Z,0.93
2018-12-21T09:23:30.689Z,0.77
2018-12-21T09:26:03.234Z,0.60
2018-12-21T09:28:34.903Z,0.60
2018-12-21T09:31:09.034Z,0.63
2018-12-21T09:33:49.215Z,0.87
2018-12-21T09:36:23.404Z,0.90
2018-12-21T09:38:54.691Z,0.60
2018-12-21T09:41:29.291Z,0.80
2018-12-21T09:44:00.576Z,0.90
2018-12-21T09:46:32.833Z,0.87
2018-12-21T09:49:07.087Z,0.73
2018-12-21T09:51:45.366Z,0.80
2018-12-21T09:54:19.509Z,0.60
2018-12-21T09:56:52.367Z,0.90
2018-12-21T09:59:23.577Z,0.60
2018-12-21T10:01:58.059Z,1.17
2018-12-21T10:04:29.061Z,0.60
2018-12-21T10:07:04.828Z,1.00
2018-12-21T10:09:35.946Z,0.70
2018-12-21T10:12:07.398Z,0.70
2018-12-21T10:14:38.963Z,0.70
2018-12-21T10:17:12.932Z,0.70
2018-12-21T10:19:44.787Z,1.20
2018-12-21T10:22:17.455Z,0.77
2018-12-21T10:24:54.140Z,0.80
2018-12-21T10:27:27.997Z,1.30
2018-12-21T10:30:12.630Z,0.90
2018-12-21T10:32:50.362Z,1.40
2018-12-21T10:35:24.022Z,0.77
2018-12-21T10:38:02.443Z,1.50
2018-12-21T10:40:38.831Z,2.00
2018-12-21T10:43:13.086Z,0.80
2018-12-21T10:50:44.018Z,1.00
2018-12-21T10:53:18.072Z,0.93
2018-12-21T10:55:50.430Z,0.90
2018-12-21T10:58:21.616Z,0.90
2018-12-21T11:00:54.108Z,1.03
2018-12-21T11:03:30.232Z,1.40
2018-12-21T11:06:12.316Z,0.97
2018-12-21T11:08:43.790Z,1.37
2018-12-21T11:11:16.420Z,1.17
2018-12-21T11:13:48.252Z,1.00
2018-12-21T11:16:20.981Z,2.23
2018-12-21T11:18:56.250Z,2.97
2018-12-21T11:21:30.247Z,1.70
2018-12-21T11:24:01.700Z,1.07
2018-12-21T11:26:35.714Z,2.30
2018-12-21T11:29:09.713Z,1.20
2018-12-21T11:31:41.838Z,0.87
2018-12-21T11:34:22.322Z,0.57
2018-12-21T11:36:55.605Z,0.60
2018-12-21T11:39:33.014Z,0.50
2018-12-21T11:42:09.444Z,0.80
2018-12-21T11:44:43.063Z,1.13
2018-12-21T11:47:23.165Z,1.60
2018-12-21T11:49:55.012Z,2.57
2018-12-21T11:52:32.035Z,2.50
2018-12-21T11:55:06.336Z,3.33
2018-12-21T11:57:38.543Z,2.57
2018-12-21T12:00:10.387Z,3.40
2018-12-21T12:02:43.460Z,7.30
2018-12-21T12:05:15.277Z,4.67
2018-12-21T12:07:55.274Z,5.13
2018-12-21T12:10:27.036Z,5.53
2018-12-21T12:13:07.816Z,4.17
2018-12-21T12:15:50.050Z,6.17
2018-12-21T12:18:25.602Z,5.23
2018-12-21T12:20:57.111Z,8.57
2018-12-21T12:23:31.107Z,4.70
2018-12-21T12:26:10.925Z,6.93
2018-12-21T12:28:43.234Z,8.97
2018-12-21T12:33:50.518Z,9.17
2018-12-21T12:36:22.438Z,11.27
2018-12-21T12:38:55.597Z,5.20
2018-12-21T12:41:29.142Z,9.67
2018-12-21T12:44:02.392Z,7.63
2018-12-21T12:46:33.533Z,12.80
2018-12-21T12:49:08.326Z,10.80
2018-12-21T12:51:49.962Z,10.80
2018-12-21T12:54:29.003Z,13.37
2018-12-21T12:56:59.964Z,15.60
2018-12-21T12:59:35.112Z,16.00
2018-12-21T13:02:09.256Z,11.47
2018-12-21T13:04:43.826Z,13.80
2018-12-21T13:07:17.643Z,13.63
2018-12-21T13:09:49.696Z,16.30
2018-12-21T13:12:20.858Z,15.30
2018-12-21T13:14:55.485Z,14.80
2018-12-21T13:17:33.015Z,13.60
2018-12-21T13:20:05.875Z,19.63
2018-12-21T13:22:36.839Z,18.87
2018-12-21T13:25:12.800Z,22.50
2018-12-21T13:27:44.214Z,21.93
2018-12-21T13:30:15.987Z,18.73
2018-12-21T13:32:54.133Z,17.67
2018-12-21T13:35:31.738Z,23.17
2018-12-21T13:38:03.805Z,18.13
2018-12-21T13:40:44.453Z,21.80
2018-12-21T13:43:22.226Z,24.27
2018-12-21T13:45:56.778Z,24.33
2018-12-21T13:48:36.704Z,22.63
2018-12-21T13:51:08.785Z,20.53
2018-12-21T13:53:40.401Z,24.07
2018-12-21T13:56:14.514Z,19.60
2018-12-21T13:58:45.615Z,21.90
2018-12-21T14:01:17.619Z,21.87
2018-12-21T14:03:48.859Z,21.13
2018-12-21T14:06:22.134Z,27.70
2018-12-21T14:08:53.457Z,22.50
2018-12-21T14:11:27.591Z,23.37
2018-12-21T14:14:05.259Z,21.70
2018-12-21T14:16:37.316Z,24.93
2018-12-21T14:19:09.590Z,31.03
2018-12-21T14:21:41.697Z,22.60
2018-12-21T14:24:16.553Z,26.43
2018-12-21T14:26:51.412Z,25.37
2018-12-21T14:29:25.356Z,23.37
2018-12-21T14:31:57.892Z,31.63
2018-12-21T14:34:29.229Z,23.37
2018-12-21T14:37:03.400Z,25.17
2018-12-21T14:39:37.372Z,28.37
2018-12-21T14:42:10.021Z,29.93
2018-12-21T14:44:45.430Z,30.47
2018-12-21T14:47:21.801Z,25.63
2018-12-21T14:49:55.186Z,29.47
2018-12-21T14:52:30.756Z,28.03
2018-12-21T14:55:02.750Z,31.80
2018-12-21T14:57:35.120Z,26.20
2018-12-21T15:00:10.652Z,26.43
2018-12-21T15:02:43.650Z,30.97
2018-12-21T15:05:18.383Z,35.27
2018-12-21T15:07:55.249Z,35.33
2018-12-21T15:10:27.336Z,32.43
2018-12-21T15:13:00.134Z,29.37
2018-12-21T15:15:34.169Z,29.47
2018-12-21T15:18:07.220Z,29.53
2018-12-21T15:20:43.561Z,30.37
2018-12-21T15:23:14.941Z,26.60
2018-12-21T15:25:46.661Z,32.30
2018-12-21T15:28:20.797Z,34.93
2018-12-21T15:30:52.307Z,37.73
2018-12-21T15:33:26.763Z,32.23
2018-12-21T15:35:58.359Z,33.47
2018-12-21T15:38:30.961Z,25.70
2018-12-21T15:41:10.955Z,29.93
2018-12-21T15:43:43.106Z,36.90
2018-12-21T15:46:17.659Z,33.10
2018-12-21T15:48:51.919Z,28.90
2018-12-21T15:51:23.807Z,29.10
2018-12-21T15:53:56.465Z,32.67
2018-12-21T15:56:29.147Z,29.10
2018-12-21T15:59:01.427Z,31.13
2018-12-21T16:01:37.110Z,38.20
2018-12-21T16:04:07.737Z,32.33
2018-12-21T16:06:38.993Z,33.23
2018-12-21T16:09:13.413Z,29.13
2018-12-21T16:11:53.820Z,35.30
2018-12-21T16:14:34.234Z,27.60
2018-12-21T16:17:06.051Z,30.23
2018-12-21T16:19:40.403Z,37.13
2018-12-21T16:22:11.911Z,31.30
2018-12-21T16:24:45.985Z,31.90
2018-12-21T16:27:23.474Z,28.67
2018-12-21T16:29:56.391Z,33.00
2018-12-21T16:32:31.419Z,38.77
2018-12-21T16:35:04.253Z,39.63
2018-12-21T16:37:36.547Z,33.30
2018-12-21T16:40:18.299Z,34.93
2018-12-21T16:45:24.530Z,34.40
2018-12-21T16:47:55.740Z,34.57
2018-12-21T16:50:28.564Z,35.33
2018-12-21T16:53:06.742Z,43.10
2018-12-21T16:55:41.079Z,28.30
2018-12-21T16:58:15.073Z,39.67
2018-12-21T17:00:50.787Z,40.67
2018-12-21T17:03:27.327Z,40.13
2018-12-21T17:06:00.076Z,37.37
2018-12-21T17:08:31.999Z,34.30
2018-12-21T17:11:03.529Z,35.33
2018-12-21T17:13:35.090Z,29.30
2018-12-21T17:16:09.647Z,37.03
2018-12-21T17:18:43.948Z,35.43
2018-12-21T17:21:28.917Z,35.20
2018-12-21T17:24:02.440Z,37.97
2018-12-21T17:26:37.337Z,36.27
2018-12-21T17:29:11.101Z,34.90
2018-12-21T17:32:37.517Z,39.00
2018-12-21T17:35:15.733Z,30.40
2018-12-21T17:37:48.065Z,32.77
2018-12-21T17:40:20.491Z,33.83
2018-12-21T17:42:53.959Z,39.40
2018-12-21T17:45:28.657Z,40.63
2018-12-21T17:48:12.365Z,35.27
2018-12-21T17:50:43.405Z,35.17
2018-12-21T17:53:24.143Z,39.57
2018-12-21T17:56:09.415Z,38.37
2018-12-21T17:58:49.566Z,33.23
2018-12-21T18:04:36.809Z,36.63
2018-12-21T18:07:10.472Z,32.63
2018-12-21T18:09:47.835Z,36.30
2018-12-21T18:12:24.066Z,36.60
2018-12-21T18:15:07.133Z,29.60
2018-12-21T18:17:40.969Z,39.40
2018-12-21T18:20:16.498Z,29.97
2018-12-21T18:22:58.743Z,33.20
2018-12-21T18:25:39.615Z,39.10
2018-12-21T18:28:19.895Z,35.63
2018-12-21T18:31:04.385Z,35.13
2018-12-21T18:33:36.206Z,32.10
2018-12-21T18:36:12.372Z,35.77
2018-12-21T18:38:44.476Z,40.27
2018-12-21T18:41:21.040Z,36.90
2018-12-21T18:43:59.921Z,27.77
2018-12-21T18:46:37.359Z,30.93
2018-12-21T18:49:10.794Z,34.30
2018-12-21T18:51:44.983Z,31.97
2018-12-21T18:54:19.647Z,31.63
2018-12-21T18:56:56.012Z,34.37
2018-12-21T18:59:30.098Z,30.87
2018-12-21T19:04:35.521Z,31.90
2018-12-21T19:07:06.736Z,28.77
2018-12-21T19:09:41.832Z,29.73
2018-12-21T19:12:15.860Z,35.87
2018-12-21T19:14:50.361Z,38.20
2018-12-21T19:17:23.125Z,34.97
2018-12-21T19:20:00.785Z,36.00
2018-12-21T19:22:32.118Z,33.03
2018-12-21T19:25:04.862Z,32.20
2018-12-21T19:27:36.050Z,32.33
2018-12-21T19:30:09.979Z,41.30
2018-12-21T19:38:44.342Z,32.00
2018-12-21T19:41:19.801Z,36.73
2018-12-21T19:43:51.644Z,34.93
2018-12-21T19:46:27.230Z,42.33
2018-12-21T19:49:00.159Z,34.13
2018-12-21T19:51:32.125Z,35.97
2018-12-21T19:54:02.993Z,34.60
2018-12-21T19:56:43.654Z,42.40
2018-12-21T19:59:16.391Z,30.63
2018-12-21T20:01:51.828Z,38.57
2018-12-21T20:04:27.334Z,38.87
2018-12-21T20:07:00.000Z,36.47
2018-12-21T20:09:34.919Z,34.43
2018-12-21T20:12:06.829Z,32.17
2018-12-21T20:14:44.939Z,40.63
2018-12-21T20:17:22.852Z,42.00
2018-12-21T20:22:55.552Z,33.73
2018-12-21T20:25:40.086Z,32.30
2018-12-21T20:28:13.927Z,38.07
2018-12-21T20:30:50.072Z,36.83
2018-12-21T20:33:24.323Z,34.40
2018-12-21T20:35:56.443Z,37.30
2018-12-21T20:38:36.211Z,41.67
2018-12-21T20:41:10.863Z,36.00
2018-12-21T20:43:42.193Z,36.53
2018-12-21T20:46:16.421Z,38.50
2018-12-21T20:48:53.196Z,41.77
2018-12-21T20:51:24.877Z,44.60
2018-12-21T20:53:56.705Z,34.23
2018-12-21T20:56:30.839Z,35.17
2018-12-21T20:59:16.886Z,38.50
2018-12-21T21:01:48.829Z,41.97
2018-12-21T21:04:24.338Z,35.17
2018-12-21T21:06:55.870Z,36.57
2018-12-21T21:09:31.143Z,31.63
2018-12-21T21:12:05.074Z,40.30
2018-12-21T21:14:39.128Z,31.83
2018-12-21T21:17:10.946Z,37.73
2018-12-21T21:19:44.204Z,43.23
2018-12-21T21:22:16.098Z,40.97
2018-12-21T21:24:50.348Z,38.77
2018-12-21T21:27:30.389Z,36.20
2018-12-21T21:29:58.825Z,35.17
2018-12-21T21:32:30.696Z,39.80
2018-12-21T21:35:03.962Z,45.00
2018-12-21T21:37:37.298Z,38.37
2018-12-21T21:40:12.526Z,39.23
2018-12-21T21:42:46.647Z,37.57
2018-12-21T21:45:18.012Z,39.20
2018-12-21T21:47:49.839Z,38.90
2018-12-21T21:50:21.091Z,40.20
2018-12-21T21:52:52.135Z,36.73
2018-12-21T21:55:26.360Z,36.77
2018-12-21T21:57:57.253Z,42.50
2018-12-21T22:00:32.627Z,36.90
2018-12-21T22:03:04.657Z,28.90
2018-12-21T22:05:35.545Z,39.20
2018-12-21T22:08:08.886Z,43.57
2018-12-21T22:10:40.411Z,40.60
2018-12-21T22:13:11.256Z,28.47
2018-12-21T22:15:44.742Z,42.23
2018-12-21T22:18:16.024Z,39.97
2018-12-21T22:20:49.352Z,33.83
2018-12-21T22:23:20.988Z,36.63
2018-12-21T22:25:53.489Z,38.77
2018-12-21T22:28:25.012Z,38.97
2018-12-21T22:30:58.373Z,35.20
2018-12-21T22:33:29.891Z,42.03
2018-12-21T22:36:00.905Z,43.17
2018-12-21T22:38:32.200Z,39.27
2018-12-21T22:41:05.420Z,35.33
2018-12-21T22:43:37.004Z,29.93
2018-12-21T22:46:08.068Z,40.27
2018-12-21T22:48:39.350Z,34.83
2018-12-21T22:51:10.573Z,39.53
2018-12-21T22:53:41.544Z,33.67
2018-12-21T22:56:11.351Z,39.13
2018-12-21T22:58:42.496Z,33.77
2018-12-21T23:01:13.883Z,34.97
2018-12-21T23:03:45.026Z,35.40
2018-12-21T23:06:18.519Z,36.90
2018-12-21T23:08:52.530Z,33.63
2018-12-21T23:11:24.261Z,36.60
2018-12-21T23:13:57.613Z,35.50
2018-12-21T23:16:29.173Z,31.97
2018-12-21T23:19:00.567Z,30.40
2018-12-21T23:21:31.671Z,39.40
2018-12-21T23:24:05.277Z,36.23
2018-12-21T23:26:36.714Z,32.77
2018-12-21T23:29:07.938Z,38.47
2018-12-21T23:31:39.728Z,29.97
2018-12-21T23:34:10.840Z,37.90
2018-12-21T23:36:42.186Z,34.10
2018-12-21T23:39:15.568Z,34.93
2018-12-21T23:41:46.675Z,32.03
2018-12-21T23:44:20.633Z,40.63
2018-12-21T23:46:54.162Z,41.47
2018-12-21T23:49:28.065Z,34.07
2018-12-21T23:51:59.581Z,37.13
2018-12-21T23:54:30.933Z,37.23
2018-12-21T23:57:03.539Z,31.67
2018-12-21T23:59:36.282Z,32.63
